sensor_id;sensor_type;location;lat;lon;timestamp;P1;durP1;ratioP1;P2;durP2;ratioP2
30972;SDS011;25423;45.624;13.790;2022-07-15T00:00:31;3.55;;;2.20;;
30972;SDS011;25423;45.624;13.790;2022-07-15T00:02:57;2.97;;;2.05;;
30972;SDS011;25423;45.624;13.790;2022-07-15T00:05:26;3.22;;;2.10;;
30972;SDS011;25423;45.624;13.790;2022-07-15T00:07:52;2.05;;;1.90;;
30972;SDS011;25423;45.624;13.790;2022-07-15T00:10:18;2.30;;;1.90;;
30972;SDS011;25423;45.624;13.790;2022-07-15T00:15:13;3.05;;;1.88;;
30972;SDS011;25423;45.624;13.790;2022-07-15T00:17:39;3.20;;;2.03;;
30972;SDS011;25423;45.624;13.790;2022-07-15T00:20:06;5.10;;;1.83;;
30972;SDS011;25423;45.624;13.790;2022-07-15T00:22:35;3.13;;;1.92;;
30972;SDS011;25423;45.624;13.790;2022-07-15T00:25:01;2.17;;;1.88;;
30972;SDS011;25423;45.624;13.790;2022-07-15T00:27:27;2.67;;;2.10;;
30972;SDS011;25423;45.624;13.790;2022-07-15T00:29:53;4.57;;;2.15;;
30972;SDS011;25423;45.624;13.790;2022-07-15T00:32:19;5.97;;;2.20;;
30972;SDS011;25423;45.624;13.790;2022-07-15T00:34:45;3.38;;;2.13;;
30972;SDS011;25423;45.624;13.790;2022-07-15T00:37:11;2.33;;;1.90;;
30972;SDS011;25423;45.624;13.790;2022-07-15T00:39:37;3.75;;;2.35;;
30972;SDS011;25423;45.624;13.790;2022-07-15T00:42:03;2.63;;;2.25;;
30972;SDS011;25423;45.624;13.790;2022-07-15T00:44:29;1.88;;;1.63;;
30972;SDS011;25423;45.624;13.790;2022-07-15T00:46:56;1.88;;;1.77;;
30972;SDS011;25423;45.624;13.790;2022-07-15T00:49:21;6.82;;;2.28;;
30972;SDS011;25423;45.624;13.790;2022-07-15T00:51:50;2.45;;;2.20;;
30972;SDS011;25423;45.624;13.790;2022-07-15T00:54:17;3.15;;;1.65;;
30972;SDS011;25423;45.624;13.790;2022-07-15T00:56:49;3.05;;;1.70;;
30972;SDS011;25423;45.624;13.790;2022-07-15T00:59:17;6.32;;;2.92;;
30972;SDS011;25423;45.624;13.790;2022-07-15T01:01:46;3.17;;;1.55;;
30972;SDS011;25423;45.624;13.790;2022-07-15T01:04:12;3.97;;;2.30;;
30972;SDS011;25423;45.624;13.790;2022-07-15T01:06:38;3.10;;;1.67;;
30972;SDS011;25423;45.624;13.790;2022-07-15T01:09:05;5.35;;;2.22;;
30972;SDS011;25423;45.624;13.790;2022-07-15T01:11:31;2.53;;;1.90;;
30972;SDS011;25423;45.624;13.790;2022-07-15T01:13:57;3.90;;;1.63;;
30972;SDS011;25423;45.624;13.790;2022-07-15T01:16:24;4.35;;;2.25;;
30972;SDS011;25423;45.624;13.790;2022-07-15T01:18:51;2.28;;;2.08;;
30972;SDS011;25423;45.624;13.790;2022-07-15T01:21:17;2.72;;;1.83;;
30972;SDS011;25423;45.624;13.790;2022-07-15T01:23:43;5.75;;;2.28;;
30972;SDS011;25423;45.624;13.790;2022-07-15T01:26:10;6.35;;;1.90;;
30972;SDS011;25423;45.624;13.790;2022-07-15T01:28:36;2.20;;;2.05;;
30972;SDS011;25423;45.624;13.790;2022-07-15T01:31:03;2.97;;;1.65;;
30972;SDS011;25423;45.624;13.790;2022-07-15T01:33:29;2.22;;;1.77;;
30972;SDS011;25423;45.624;13.790;2022-07-15T01:35:57;2.92;;;1.60;;
30972;SDS011;25423;45.624;13.790;2022-07-15T01:38:24;3.95;;;1.65;;
30972;SDS011;25423;45.624;13.790;2022-07-15T01:40:51;4.38;;;1.73;;
30972;SDS011;25423;45.624;13.790;2022-07-15T01:43:17;2.95;;;2.00;;
30972;SDS011;25423;45.624;13.790;2022-07-15T01:45:43;5.80;;;2.13;;
30972;SDS011;25423;45.624;13.790;2022-07-15T01:48:10;2.78;;;2.00;;
30972;SDS011;25423;45.624;13.790;2022-07-15T01:50:57;2.65;;;2.03;;
30972;SDS011;25423;45.624;13.790;2022-07-15T01:53:24;1.83;;;1.67;;
30972;SDS011;25423;45.624;13.790;2022-07-15T01:55:51;2.20;;;2.00;;
30972;SDS011;25423;45.624;13.790;2022-07-15T01:58:17;4.13;;;2.63;;
30972;SDS011;25423;45.624;13.790;2022-07-15T02:00:43;3.08;;;2.60;;
30972;SDS011;25423;45.624;13.790;2022-07-15T02:03:09;2.17;;;2.00;;
30972;SDS011;25423;45.624;13.790;2022-07-15T02:05:35;2.95;;;1.92;;
30972;SDS011;25423;45.624;13.790;2022-07-15T02:08:03;2.97;;;2.67;;
30972;SDS011;25423;45.624;13.790;2022-07-15T02:10:30;1.90;;;1.70;;
30972;SDS011;25423;45.624;13.790;2022-07-15T02:13:11;2.85;;;1.50;;
30972;SDS011;25423;45.624;13.790;2022-07-15T02:15:38;2.30;;;2.10;;
30972;SDS011;25423;45.624;13.790;2022-07-15T02:18:05;6.47;;;2.17;;
30972;SDS011;25423;45.624;13.790;2022-07-15T02:20:31;2.05;;;1.95;;
30972;SDS011;25423;45.624;13.790;2022-07-15T02:22:57;2.28;;;2.08;;
30972;SDS011;25423;45.624;13.790;2022-07-15T02:25:24;2.78;;;2.28;;
30972;SDS011;25423;45.624;13.790;2022-07-15T02:27:54;1.92;;;1.52;;
30972;SDS011;25423;45.624;13.790;2022-07-15T02:30:28;1.85;;;1.75;;
30972;SDS011;25423;45.624;13.790;2022-07-15T02:32:56;5.78;;;2.50;;
30972;SDS011;25423;45.624;13.790;2022-07-15T02:35:22;5.22;;;1.85;;
30972;SDS011;25423;45.624;13.790;2022-07-15T02:37:48;2.25;;;2.03;;
30972;SDS011;25423;45.624;13.790;2022-07-15T02:40:14;4.07;;;2.92;;
30972;SDS011;25423;45.624;13.790;2022-07-15T02:42:45;2.00;;;1.90;;
30972;SDS011;25423;45.624;13.790;2022-07-15T02:45:15;5.53;;;1.98;;
30972;SDS011;25423;45.624;13.790;2022-07-15T02:47:42;2.55;;;1.88;;
30972;SDS011;25423;45.624;13.790;2022-07-15T02:50:08;2.15;;;2.00;;
30972;SDS011;25423;45.624;13.790;2022-07-15T02:52:34;1.75;;;1.65;;
30972;SDS011;25423;45.624;13.790;2022-07-15T02:55:00;4.35;;;2.13;;
30972;SDS011;25423;45.624;13.790;2022-07-15T02:57:26;2.08;;;1.98;;
30972;SDS011;25423;45.624;13.790;2022-07-15T02:59:53;2.55;;;2.00;;
30972;SDS011;25423;45.624;13.790;2022-07-15T03:02:19;2.22;;;2.13;;
30972;SDS011;25423;45.624;13.790;2022-07-15T03:04:45;4.05;;;2.15;;
30972;SDS011;25423;45.624;13.790;2022-07-15T03:07:11;3.22;;;2.08;;
30972;SDS011;25423;45.624;13.790;2022-07-15T03:09:37;4.30;;;1.73;;
30972;SDS011;25423;45.624;13.790;2022-07-15T03:12:03;3.42;;;2.03;;
30972;SDS011;25423;45.624;13.790;2022-07-15T03:14:29;3.42;;;2.35;;
30972;SDS011;25423;45.624;13.790;2022-07-15T03:16:55;2.25;;;2.03;;
30972;SDS011;25423;45.624;13.790;2022-07-15T03:19:20;4.07;;;2.13;;
30972;SDS011;25423;45.624;13.790;2022-07-15T03:21:47;2.33;;;1.75;;
30972;SDS011;25423;45.624;13.790;2022-07-15T03:24:16;5.85;;;2.75;;
30972;SDS011;25423;45.624;13.790;2022-07-15T03:26:42;7.30;;;2.47;;
30972;SDS011;25423;45.624;13.790;2022-07-15T03:29:08;2.40;;;2.20;;
30972;SDS011;25423;45.624;13.790;2022-07-15T03:31:34;4.20;;;2.63;;
30972;SDS011;25423;45.624;13.790;2022-07-15T03:34:00;3.08;;;2.30;;
30972;SDS011;25423;45.624;13.790;2022-07-15T03:36:26;3.25;;;1.80;;
30972;SDS011;25423;45.624;13.790;2022-07-15T03:38:53;2.53;;;2.33;;
30972;SDS011;25423;45.624;13.790;2022-07-15T03:41:19;4.45;;;2.65;;
30972;SDS011;25423;45.624;13.790;2022-07-15T03:43:46;2.42;;;2.22;;
30972;SDS011;25423;45.624;13.790;2022-07-15T03:46:12;2.60;;;2.03;;
30972;SDS011;25423;45.624;13.790;2022-07-15T03:48:41;2.25;;;1.90;;
30972;SDS011;25423;45.624;13.790;2022-07-15T03:51:07;3.60;;;2.33;;
30972;SDS011;25423;45.624;13.790;2022-07-15T03:53:33;1.90;;;1.80;;
30972;SDS011;25423;45.624;13.790;2022-07-15T03:55:59;7.78;;;1.95;;
30972;SDS011;25423;45.624;13.790;2022-07-15T03:58:24;7.75;;;1.95;;
30972;SDS011;25423;45.624;13.790;2022-07-15T04:00:50;1.52;;;1.42;;
30972;SDS011;25423;45.624;13.790;2022-07-15T04:03:16;1.73;;;1.63;;
30972;SDS011;25423;45.624;13.790;2022-07-15T04:05:42;2.50;;;1.52;;
30972;SDS011;25423;45.624;13.790;2022-07-15T04:08:08;4.53;;;2.35;;
30972;SDS011;25423;45.624;13.790;2022-07-15T04:10:35;4.47;;;2.03;;
30972;SDS011;25423;45.624;13.790;2022-07-15T04:13:01;2.78;;;1.90;;
30972;SDS011;25423;45.624;13.790;2022-07-15T04:15:27;1.92;;;1.63;;
30972;SDS011;25423;45.624;13.790;2022-07-15T04:17:53;2.47;;;1.88;;
30972;SDS011;25423;45.624;13.790;2022-07-15T04:20:19;2.55;;;1.80;;
30972;SDS011;25423;45.624;13.790;2022-07-15T04:22:46;1.80;;;1.70;;
30972;SDS011;25423;45.624;13.790;2022-07-15T04:25:15;7.25;;;2.75;;
30972;SDS011;25423;45.624;13.790;2022-07-15T04:27:42;5.82;;;2.15;;
30972;SDS011;25423;45.624;13.790;2022-07-15T04:30:09;6.15;;;2.40;;
30972;SDS011;25423;45.624;13.790;2022-07-15T04:32:35;2.15;;;1.60;;
30972;SDS011;25423;45.624;13.790;2022-07-15T04:35:01;3.45;;;1.65;;
30972;SDS011;25423;45.624;13.790;2022-07-15T04:37:28;2.85;;;1.40;;
30972;SDS011;25423;45.624;13.790;2022-07-15T04:39:54;1.90;;;1.80;;
30972;SDS011;25423;45.624;13.790;2022-07-15T04:42:20;2.72;;;1.80;;
30972;SDS011;25423;45.624;13.790;2022-07-15T04:44:46;3.92;;;1.92;;
30972;SDS011;25423;45.624;13.790;2022-07-15T04:47:13;6.45;;;2.38;;
30972;SDS011;25423;45.624;13.790;2022-07-15T04:49:39;2.80;;;2.35;;
30972;SDS011;25423;45.624;13.790;2022-07-15T04:52:23;4.45;;;2.03;;
30972;SDS011;25423;45.624;13.790;2022-07-15T04:54:49;7.55;;;2.00;;
30972;SDS011;25423;45.624;13.790;2022-07-15T04:57:16;3.67;;;1.85;;
30972;SDS011;25423;45.624;13.790;2022-07-15T04:59:41;2.00;;;1.80;;
30972;SDS011;25423;45.624;13.790;2022-07-15T05:02:07;4.93;;;1.92;;
30972;SDS011;25423;45.624;13.790;2022-07-15T05:04:33;3.47;;;1.92;;
30972;SDS011;25423;45.624;13.790;2022-07-15T05:06:59;9.20;;;1.95;;
30972;SDS011;25423;45.624;13.790;2022-07-15T05:09:25;6.60;;;1.83;;
30972;SDS011;25423;45.624;13.790;2022-07-15T05:11:50;5.93;;;1.80;;
30972;SDS011;25423;45.624;13.790;2022-07-15T05:14:16;4.07;;;1.65;;
30972;SDS011;25423;45.624;13.790;2022-07-15T05:16:42;2.15;;;1.65;;
30972;SDS011;25423;45.624;13.790;2022-07-15T05:19:07;3.00;;;2.00;;
30972;SDS011;25423;45.624;13.790;2022-07-15T05:21:33;3.33;;;2.17;;
30972;SDS011;25423;45.624;13.790;2022-07-15T05:23:59;1.77;;;1.65;;
30972;SDS011;25423;45.624;13.790;2022-07-15T05:26:26;5.10;;;2.25;;
30972;SDS011;25423;45.624;13.790;2022-07-15T05:28:52;4.82;;;2.10;;
30972;SDS011;25423;45.624;13.790;2022-07-15T05:31:17;1.85;;;1.75;;
30972;SDS011;25423;45.624;13.790;2022-07-15T05:33:43;1.63;;;1.52;;
30972;SDS011;25423;45.624;13.790;2022-07-15T05:36:13;2.28;;;2.08;;
30972;SDS011;25423;45.624;13.790;2022-07-15T05:38:40;2.90;;;1.67;;
30972;SDS011;25423;45.624;13.790;2022-07-15T05:41:06;11.00;;;2.38;;
30972;SDS011;25423;45.624;13.790;2022-07-15T05:43:33;3.53;;;2.42;;
30972;SDS011;25423;45.624;13.790;2022-07-15T05:46:00;2.53;;;2.25;;
30972;SDS011;25423;45.624;13.790;2022-07-15T05:48:26;5.13;;;1.70;;
30972;SDS011;25423;45.624;13.790;2022-07-15T05:50:52;4.88;;;1.73;;
30972;SDS011;25423;45.624;13.790;2022-07-15T05:53:17;3.90;;;1.67;;
30972;SDS011;25423;45.624;13.790;2022-07-15T05:55:43;4.50;;;1.92;;
30972;SDS011;25423;45.624;13.790;2022-07-15T05:58:09;6.18;;;1.90;;
30972;SDS011;25423;45.624;13.790;2022-07-15T06:00:36;5.05;;;1.80;;
30972;SDS011;25423;45.624;13.790;2022-07-15T06:03:03;7.93;;;1.88;;
30972;SDS011;25423;45.624;13.790;2022-07-15T06:05:29;4.13;;;3.72;;
30972;SDS011;25423;45.624;13.790;2022-07-15T06:07:55;5.07;;;3.15;;
30972;SDS011;25423;45.624;13.790;2022-07-15T06:10:21;3.25;;;2.20;;
30972;SDS011;25423;45.624;13.790;2022-07-15T06:12:47;7.30;;;3.40;;
30972;SDS011;25423;45.624;13.790;2022-07-15T06:15:13;9.02;;;4.65;;
30972;SDS011;25423;45.624;13.790;2022-07-15T06:17:39;5.78;;;3.97;;
30972;SDS011;25423;45.624;13.790;2022-07-15T06:20:05;8.52;;;2.05;;
30972;SDS011;25423;45.624;13.790;2022-07-15T06:22:32;4.82;;;2.10;;
30972;SDS011;25423;45.624;13.790;2022-07-15T06:24:58;9.25;;;3.40;;
30972;SDS011;25423;45.624;13.790;2022-07-15T06:27:23;8.00;;;3.70;;
30972;SDS011;25423;45.624;13.790;2022-07-15T06:29:49;4.47;;;2.30;;
30972;SDS011;25423;45.624;13.790;2022-07-15T06:32:16;3.83;;;2.20;;
30972;SDS011;25423;45.624;13.790;2022-07-15T06:34:43;7.50;;;1.73;;
30972;SDS011;25423;45.624;13.790;2022-07-15T06:37:09;9.48;;;4.55;;
30972;SDS011;25423;45.624;13.790;2022-07-15T06:39:35;11.13;;;4.97;;
30972;SDS011;25423;45.624;13.790;2022-07-15T06:42:01;10.40;;;5.32;;
30972;SDS011;25423;45.624;13.790;2022-07-15T06:44:28;4.53;;;2.40;;
30972;SDS011;25423;45.624;13.790;2022-07-15T06:46:54;4.82;;;3.53;;
30972;SDS011;25423;45.624;13.790;2022-07-15T06:49:20;5.60;;;2.45;;
30972;SDS011;25423;45.624;13.790;2022-07-15T06:51:46;4.53;;;2.38;;
30972;SDS011;25423;45.624;13.790;2022-07-15T06:54:12;6.38;;;2.00;;
30972;SDS011;25423;45.624;13.790;2022-07-15T06:56:38;7.57;;;2.30;;
30972;SDS011;25423;45.624;13.790;2022-07-15T06:59:04;2.88;;;1.83;;
30972;SDS011;25423;45.624;13.790;2022-07-15T07:01:30;3.28;;;1.90;;
30972;SDS011;25423;45.624;13.790;2022-07-15T07:03:57;11.52;;;2.72;;
30972;SDS011;25423;45.624;13.790;2022-07-15T07:06:23;8.25;;;2.22;;
30972;SDS011;25423;45.624;13.790;2022-07-15T07:08:51;5.65;;;2.50;;
30972;SDS011;25423;45.624;13.790;2022-07-15T07:11:17;10.38;;;2.63;;
30972;SDS011;25423;45.624;13.790;2022-07-15T07:13:44;2.60;;;2.03;;
30972;SDS011;25423;45.624;13.790;2022-07-15T07:16:10;4.80;;;3.03;;
30972;SDS011;25423;45.624;13.790;2022-07-15T07:18:37;9.38;;;2.78;;
30972;SDS011;25423;45.624;13.790;2022-07-15T07:21:03;3.90;;;3.08;;
30972;SDS011;25423;45.624;13.790;2022-07-15T07:23:29;2.58;;;2.38;;
30972;SDS011;25423;45.624;13.790;2022-07-15T07:25:56;7.10;;;2.83;;
30972;SDS011;25423;45.624;13.790;2022-07-15T07:28:22;6.85;;;2.65;;
30972;SDS011;25423;45.624;13.790;2022-07-15T07:30:48;9.52;;;2.53;;
30972;SDS011;25423;45.624;13.790;2022-07-15T07:33:19;8.15;;;2.75;;
30972;SDS011;25423;45.624;13.790;2022-07-15T07:35:45;19.80;;;4.13;;
30972;SDS011;25423;45.624;13.790;2022-07-15T07:38:11;11.98;;;4.65;;
30972;SDS011;25423;45.624;13.790;2022-07-15T07:40:37;13.43;;;3.22;;
30972;SDS011;25423;45.624;13.790;2022-07-15T07:43:03;5.95;;;1.88;;
30972;SDS011;25423;45.624;13.790;2022-07-15T07:45:29;7.72;;;1.98;;
30972;SDS011;25423;45.624;13.790;2022-07-15T07:47:55;57.25;;;7.05;;
30972;SDS011;25423;45.624;13.790;2022-07-15T07:50:21;6.68;;;2.72;;
30972;SDS011;25423;45.624;13.790;2022-07-15T07:52:47;22.10;;;4.65;;
30972;SDS011;25423;45.624;13.790;2022-07-15T07:55:13;14.52;;;3.53;;
30972;SDS011;25423;45.624;13.790;2022-07-15T07:57:49;10.10;;;3.15;;
30972;SDS011;25423;45.624;13.790;2022-07-15T08:00:19;14.38;;;3.10;;
30972;SDS011;25423;45.624;13.790;2022-07-15T08:02:46;11.18;;;3.53;;
30972;SDS011;25423;45.624;13.790;2022-07-15T08:05:12;8.32;;;3.22;;
30972;SDS011;25423;45.624;13.790;2022-07-15T08:07:39;9.18;;;2.78;;
30972;SDS011;25423;45.624;13.790;2022-07-15T08:10:08;9.27;;;2.40;;
30972;SDS011;25423;45.624;13.790;2022-07-15T08:12:35;8.15;;;2.25;;
30972;SDS011;25423;45.624;13.790;2022-07-15T08:15:03;10.75;;;3.15;;
30972;SDS011;25423;45.624;13.790;2022-07-15T08:17:31;9.85;;;3.20;;
30972;SDS011;25423;45.624;13.790;2022-07-15T08:19:57;12.95;;;2.95;;
30972;SDS011;25423;45.624;13.790;2022-07-15T08:22:23;5.90;;;2.83;;
30972;SDS011;25423;45.624;13.790;2022-07-15T08:24:48;7.32;;;3.35;;
30972;SDS011;25423;45.624;13.790;2022-07-15T08:27:15;5.85;;;2.67;;
30972;SDS011;25423;45.624;13.790;2022-07-15T08:29:41;8.27;;;2.50;;
30972;SDS011;25423;45.624;13.790;2022-07-15T08:32:08;15.73;;;2.35;;
30972;SDS011;25423;45.624;13.790;2022-07-15T08:34:34;11.18;;;3.40;;
30972;SDS011;25423;45.624;13.790;2022-07-15T08:37:00;4.90;;;2.30;;
30972;SDS011;25423;45.624;13.790;2022-07-15T08:39:25;8.25;;;2.40;;
30972;SDS011;25423;45.624;13.790;2022-07-15T08:41:51;3.75;;;2.00;;
30972;SDS011;25423;45.624;13.790;2022-07-15T08:44:18;5.82;;;2.88;;
30972;SDS011;25423;45.624;13.790;2022-07-15T08:46:47;5.25;;;2.33;;
30972;SDS011;25423;45.624;13.790;2022-07-15T08:49:14;14.88;;;3.25;;
30972;SDS011;25423;45.624;13.790;2022-07-15T08:51:43;8.48;;;2.75;;
30972;SDS011;25423;45.624;13.790;2022-07-15T08:54:10;10.98;;;2.78;;
30972;SDS011;25423;45.624;13.790;2022-07-15T08:56:37;16.13;;;3.35;;
30972;SDS011;25423;45.624;13.790;2022-07-15T08:59:03;4.82;;;2.42;;
30972;SDS011;25423;45.624;13.790;2022-07-15T09:01:30;8.20;;;2.47;;
30972;SDS011;25423;45.624;13.790;2022-07-15T09:03:57;6.80;;;2.45;;
30972;SDS011;25423;45.624;13.790;2022-07-15T09:06:33;9.48;;;3.33;;
30972;SDS011;25423;45.624;13.790;2022-07-15T09:11:59;5.53;;;2.70;;
30972;SDS011;25423;45.624;13.790;2022-07-15T09:14:36;6.18;;;2.72;;
30972;SDS011;25423;45.624;13.790;2022-07-15T09:22:24;17.80;;;3.95;;
30972;SDS011;25423;45.624;13.790;2022-07-15T09:25:07;6.47;;;2.50;;
30972;SDS011;25423;45.624;13.790;2022-07-15T09:27:36;10.57;;;3.35;;
30972;SDS011;25423;45.624;13.790;2022-07-15T09:33:02;3.92;;;2.25;;
30972;SDS011;25423;45.624;13.790;2022-07-15T09:49:10;11.07;;;3.00;;
30972;SDS011;25423;45.624;13.790;2022-07-15T09:51:45;5.50;;;2.40;;
30972;SDS011;25423;45.624;13.790;2022-07-15T09:54:16;5.43;;;2.25;;
30972;SDS011;25423;45.624;13.790;2022-07-15T09:56:44;9.90;;;2.22;;
30972;SDS011;25423;45.624;13.790;2022-07-15T09:59:10;14.65;;;2.67;;
30972;SDS011;25423;45.624;13.790;2022-07-15T10:01:37;6.78;;;2.95;;
30972;SDS011;25423;45.624;13.790;2022-07-15T10:04:05;8.48;;;2.65;;
30972;SDS011;25423;45.624;13.790;2022-07-15T10:06:33;3.67;;;2.17;;
30972;SDS011;25423;45.624;13.790;2022-07-15T10:09:00;5.20;;;1.92;;
30972;SDS011;25423;45.624;13.790;2022-07-15T10:11:26;2.42;;;2.25;;
30972;SDS011;25423;45.624;13.790;2022-07-15T10:16:59;4.28;;;2.00;;
30972;SDS011;25423;45.624;13.790;2022-07-15T10:25:21;3.40;;;1.80;;
30972;SDS011;25423;45.624;13.790;2022-07-15T10:30:39;3.53;;;1.35;;
30972;SDS011;25423;45.624;13.790;2022-07-15T10:35:45;3.30;;;1.35;;
30972;SDS011;25423;45.624;13.790;2022-07-15T10:40:56;4.40;;;1.38;;
30972;SDS011;25423;45.624;13.790;2022-07-15T10:43:36;4.28;;;1.23;;
30972;SDS011;25423;45.624;13.790;2022-07-15T10:48:46;4.20;;;1.88;;
30972;SDS011;25423;45.624;13.790;2022-07-15T10:57:00;7.15;;;2.00;;
30972;SDS011;25423;45.624;13.790;2022-07-15T10:59:27;5.53;;;1.42;;
30972;SDS011;25423;45.624;13.790;2022-07-15T11:04:28;6.10;;;1.13;;
30972;SDS011;25423;45.624;13.790;2022-07-15T11:09:45;4.43;;;1.50;;
30972;SDS011;25423;45.624;13.790;2022-07-15T11:15:22;2.10;;;1.20;;
30972;SDS011;25423;45.624;13.790;2022-07-15T11:17:51;1.58;;;1.30;;
30972;SDS011;25423;45.624;13.790;2022-07-15T11:20:21;1.92;;;1.13;;
30972;SDS011;25423;45.624;13.790;2022-07-15T11:22:49;3.08;;;1.75;;
30972;SDS011;25423;45.624;13.790;2022-07-15T11:25:17;4.05;;;1.67;;
30972;SDS011;25423;45.624;13.790;2022-07-15T11:28:04;5.63;;;1.90;;
30972;SDS011;25423;45.624;13.790;2022-07-15T11:33:12;1.45;;;1.17;;
30972;SDS011;25423;45.624;13.790;2022-07-15T11:38:09;3.10;;;2.47;;
30972;SDS011;25423;45.624;13.790;2022-07-15T11:40:35;4.95;;;1.60;;
30972;SDS011;25423;45.624;13.790;2022-07-15T11:43:27;1.77;;;1.10;;
30972;SDS011;25423;45.624;13.790;2022-07-15T11:46:12;4.35;;;1.58;;
30972;SDS011;25423;45.624;13.790;2022-07-15T11:48:38;1.73;;;1.60;;
30972;SDS011;25423;45.624;13.790;2022-07-15T11:51:06;1.83;;;1.70;;
30972;SDS011;25423;45.624;13.790;2022-07-15T11:53:37;1.67;;;1.58;;
30972;SDS011;25423;45.624;13.790;2022-07-15T11:56:08;1.30;;;1.10;;
30972;SDS011;25423;45.624;13.790;2022-07-15T11:58:43;2.10;;;1.58;;
30972;SDS011;25423;45.624;13.790;2022-07-15T12:01:15;3.65;;;1.33;;
30972;SDS011;25423;45.624;13.790;2022-07-15T12:03:43;1.73;;;1.42;;
30972;SDS011;25423;45.624;13.790;2022-07-15T12:08:44;1.67;;;1.42;;
30972;SDS011;25423;45.624;13.790;2022-07-15T12:11:11;3.63;;;1.52;;
30972;SDS011;25423;45.624;13.790;2022-07-15T12:13:44;1.48;;;1.30;;
30972;SDS011;25423;45.624;13.790;2022-07-15T12:16:19;2.17;;;1.67;;
30972;SDS011;25423;45.624;13.790;2022-07-15T12:18:51;1.92;;;1.73;;
30972;SDS011;25423;45.624;13.790;2022-07-15T12:21:22;3.33;;;1.27;;
30972;SDS011;25423;45.624;13.790;2022-07-15T12:26:25;2.63;;;1.30;;
30972;SDS011;25423;45.624;13.790;2022-07-15T12:28:54;1.80;;;1.50;;
30972;SDS011;25423;45.624;13.790;2022-07-15T12:31:28;2.63;;;1.35;;
30972;SDS011;25423;45.624;13.790;2022-07-15T12:33:56;3.17;;;1.25;;
30972;SDS011;25423;45.624;13.790;2022-07-15T12:36:23;1.23;;;1.08;;
30972;SDS011;25423;45.624;13.790;2022-07-15T12:41:36;3.15;;;0.95;;
30972;SDS011;25423;45.624;13.790;2022-07-15T12:44:04;7.20;;;1.48;;
30972;SDS011;25423;45.624;13.790;2022-07-15T12:52:18;1.08;;;0.88;;
30972;SDS011;25423;45.624;13.790;2022-07-15T12:54:46;2.60;;;0.98;;
30972;SDS011;25423;45.624;13.790;2022-07-15T12:57:20;1.77;;;1.27;;
30972;SDS011;25423;45.624;13.790;2022-07-15T12:59:49;1.23;;;1.10;;
30972;SDS011;25423;45.624;13.790;2022-07-15T13:02:26;3.80;;;0.88;;
30972;SDS011;25423;45.624;13.790;2022-07-15T13:04:53;3.65;;;0.90;;
30972;SDS011;25423;45.624;13.790;2022-07-15T13:07:19;0.85;;;0.77;;
30972;SDS011;25423;45.624;13.790;2022-07-15T13:09:45;1.35;;;1.10;;
30972;SDS011;25423;45.624;13.790;2022-07-15T13:12:11;1.13;;;0.90;;
30972;SDS011;25423;45.624;13.790;2022-07-15T13:14:38;1.00;;;1.00;;
30972;SDS011;25423;45.624;13.790;2022-07-15T13:17:05;1.85;;;0.98;;
30972;SDS011;25423;45.624;13.790;2022-07-15T13:19:31;3.75;;;1.30;;
30972;SDS011;25423;45.624;13.790;2022-07-15T13:21:58;1.95;;;1.25;;
30972;SDS011;25423;45.624;13.790;2022-07-15T13:24:24;3.78;;;1.40;;
30972;SDS011;25423;45.624;13.790;2022-07-15T13:26:50;0.98;;;0.70;;
30972;SDS011;25423;45.624;13.790;2022-07-15T13:29:15;1.17;;;0.93;;
30972;SDS011;25423;45.624;13.790;2022-07-15T13:31:41;2.90;;;1.05;;
30972;SDS011;25423;45.624;13.790;2022-07-15T13:34:07;1.45;;;1.05;;
30972;SDS011;25423;45.624;13.790;2022-07-15T13:36:32;2.70;;;1.10;;
30972;SDS011;25423;45.624;13.790;2022-07-15T13:38:59;3.17;;;1.00;;
30972;SDS011;25423;45.624;13.790;2022-07-15T13:41:25;2.33;;;1.00;;
30972;SDS011;25423;45.624;13.790;2022-07-15T13:43:51;2.13;;;0.77;;
30972;SDS011;25423;45.624;13.790;2022-07-15T13:46:16;2.90;;;1.10;;
30972;SDS011;25423;45.624;13.790;2022-07-15T13:48:42;4.22;;;1.00;;
30972;SDS011;25423;45.624;13.790;2022-07-15T13:51:08;1.70;;;1.25;;
30972;SDS011;25423;45.624;13.790;2022-07-15T13:53:49;0.73;;;0.73;;
30972;SDS011;25423;45.624;13.790;2022-07-15T13:56:16;1.48;;;0.82;;
30972;SDS011;25423;45.624;13.790;2022-07-15T13:58:42;4.57;;;0.93;;
30972;SDS011;25423;45.624;13.790;2022-07-15T14:01:08;3.80;;;1.08;;
30972;SDS011;25423;45.624;13.790;2022-07-15T14:03:34;1.67;;;0.98;;
30972;SDS011;25423;45.624;13.790;2022-07-15T14:05:59;2.00;;;0.68;;
30972;SDS011;25423;45.624;13.790;2022-07-15T14:08:25;0.80;;;0.52;;
30972;SDS011;25423;45.624;13.790;2022-07-15T14:10:51;0.50;;;0.50;;
30972;SDS011;25423;45.624;13.790;2022-07-15T14:13:17;0.70;;;0.70;;
30972;SDS011;25423;45.624;13.790;2022-07-15T14:15:43;5.22;;;0.57;;
30972;SDS011;25423;45.624;13.790;2022-07-15T14:18:09;0.70;;;0.50;;
30972;SDS011;25423;45.624;13.790;2022-07-15T14:20:34;0.73;;;0.70;;
30972;SDS011;25423;45.624;13.790;2022-07-15T14:23:00;1.17;;;0.68;;
30972;SDS011;25423;45.624;13.790;2022-07-15T14:25:27;1.73;;;0.70;;
30972;SDS011;25423;45.624;13.790;2022-07-15T14:27:53;1.77;;;0.80;;
30972;SDS011;25423;45.624;13.790;2022-07-15T14:30:19;0.65;;;0.65;;
30972;SDS011;25423;45.624;13.790;2022-07-15T14:32:45;2.58;;;0.88;;
30972;SDS011;25423;45.624;13.790;2022-07-15T14:35:11;3.78;;;0.80;;
30972;SDS011;25423;45.624;13.790;2022-07-15T14:37:36;3.10;;;0.90;;
30972;SDS011;25423;45.624;13.790;2022-07-15T14:40:03;2.25;;;0.70;;
30972;SDS011;25423;45.624;13.790;2022-07-15T14:42:30;1.15;;;0.80;;
30972;SDS011;25423;45.624;13.790;2022-07-15T14:44:58;1.58;;;0.90;;
30972;SDS011;25423;45.624;13.790;2022-07-15T14:47:24;2.88;;;1.25;;
30972;SDS011;25423;45.624;13.790;2022-07-15T14:49:49;3.95;;;1.15;;
30972;SDS011;25423;45.624;13.790;2022-07-15T14:52:15;1.50;;;0.73;;
30972;SDS011;25423;45.624;13.790;2022-07-15T14:54:41;2.38;;;0.95;;
30972;SDS011;25423;45.624;13.790;2022-07-15T14:57:08;2.40;;;0.80;;
30972;SDS011;25423;45.624;13.790;2022-07-15T14:59:34;1.33;;;1.23;;
30972;SDS011;25423;45.624;13.790;2022-07-15T15:02:06;1.48;;;0.70;;
30972;SDS011;25423;45.624;13.790;2022-07-15T15:04:33;4.07;;;1.40;;
30972;SDS011;25423;45.624;13.790;2022-07-15T15:06:59;4.00;;;1.30;;
30972;SDS011;25423;45.624;13.790;2022-07-15T15:09:25;7.63;;;1.33;;
30972;SDS011;25423;45.624;13.790;2022-07-15T15:11:51;1.10;;;0.90;;
30972;SDS011;25423;45.624;13.790;2022-07-15T15:14:17;4.60;;;1.35;;
30972;SDS011;25423;45.624;13.790;2022-07-15T15:16:43;1.20;;;1.00;;
30972;SDS011;25423;45.624;13.790;2022-07-15T15:19:09;11.68;;;2.33;;
30972;SDS011;25423;45.624;13.790;2022-07-15T15:21:34;1.88;;;0.85;;
30972;SDS011;25423;45.624;13.790;2022-07-15T15:24:01;1.48;;;0.82;;
30972;SDS011;25423;45.624;13.790;2022-07-15T15:26:28;3.58;;;1.02;;
30972;SDS011;25423;45.624;13.790;2022-07-15T15:28:54;2.38;;;1.33;;
30972;SDS011;25423;45.624;13.790;2022-07-15T15:31:23;3.92;;;1.00;;
30972;SDS011;25423;45.624;13.790;2022-07-15T15:33:51;3.20;;;1.00;;
30972;SDS011;25423;45.624;13.790;2022-07-15T15:36:17;2.58;;;1.15;;
30972;SDS011;25423;45.624;13.790;2022-07-15T15:38:43;2.33;;;1.38;;
30972;SDS011;25423;45.624;13.790;2022-07-15T15:41:10;6.88;;;1.05;;
30972;SDS011;25423;45.624;13.790;2022-07-15T15:43:35;9.35;;;1.50;;
30972;SDS011;25423;45.624;13.790;2022-07-15T15:46:01;2.13;;;1.85;;
30972;SDS011;25423;45.624;13.790;2022-07-15T15:48:28;2.63;;;0.95;;
30972;SDS011;25423;45.624;13.790;2022-07-15T15:50:53;2.58;;;1.33;;
30972;SDS011;25423;45.624;13.790;2022-07-15T15:53:19;5.70;;;1.77;;